createdAt,value
2019-03-25T00:02:21.190Z,22.33
2019-03-25T00:05:00.391Z,18.67
2019-03-25T00:07:39.358Z,20.03
2019-03-25T00:10:18.427Z,22.87
2019-03-25T00:12:57.510Z,23.23
2019-03-25T00:15:36.562Z,21.13
2019-03-25T00:18:15.630Z,24.90
2019-03-25T00:20:54.696Z,20.17
2019-03-25T00:23:33.763Z,23.13
2019-03-25T00:26:12.845Z,21.27
2019-03-25T00:28:51.891Z,24.07
2019-03-25T00:31:30.972Z,23.13
2019-03-25T00:34:10.041Z,22.50
2019-03-25T00:36:49.115Z,26.30
2019-03-25T00:39:28.190Z,26.17
2019-03-25T00:42:07.250Z,26.30
2019-03-25T00:44:46.316Z,33.87
2019-03-25T00:47:25.560Z,30.23
2019-03-25T00:50:04.609Z,30.13
2019-03-25T00:52:43.680Z,25.20
2019-03-25T00:55:22.744Z,27.07
2019-03-25T00:58:01.818Z,39.03
2019-03-25T01:00:40.878Z,28.20
2019-03-25T01:03:19.925Z,25.20
2019-03-25T01:05:58.980Z,27.30
2019-03-25T01:08:38.062Z,26.73
2019-03-25T01:11:17.099Z,23.87
2019-03-25T01:13:56.213Z,22.93
2019-03-25T01:16:35.297Z,24.50
2019-03-25T01:19:14.341Z,25.33
2019-03-25T01:21:53.419Z,24.80
2019-03-25T01:24:32.440Z,27.97
2019-03-25T01:27:11.539Z,27.83
2019-03-25T01:29:50.596Z,22.97
2019-03-25T01:32:29.653Z,23.33
2019-03-25T01:35:08.822Z,29.73
2019-03-25T01:37:47.889Z,24.77
2019-03-25T01:40:26.941Z,24.57
2019-03-25T01:43:06.070Z,27.20
2019-03-25T01:45:45.107Z,28.17
2019-03-25T01:48:24.200Z,26.30
2019-03-25T01:51:03.263Z,24.97
2019-03-25T01:53:42.333Z,22.10
2019-03-25T01:56:21.372Z,19.93
2019-03-25T01:59:00.422Z,26.80
2019-03-25T02:01:39.472Z,28.53
2019-03-25T02:04:18.523Z,24.57
2019-03-25T02:06:57.686Z,20.73
2019-03-25T02:09:36.717Z,26.23
2019-03-25T02:12:15.781Z,20.37
2019-03-25T02:14:54.872Z,25.40
2019-03-25T02:17:33.926Z,24.67
2019-03-25T02:20:13.008Z,25.27
2019-03-25T02:22:52.226Z,18.77
2019-03-25T02:25:31.127Z,20.83
2019-03-25T02:28:10.208Z,18.20
2019-03-25T02:30:49.260Z,16.67
2019-03-25T02:33:28.340Z,23.60
2019-03-25T02:36:07.432Z,22.40
2019-03-25T02:38:46.506Z,19.87
2019-03-25T02:41:25.562Z,16.27
2019-03-25T02:44:04.626Z,20.40
2019-03-25T02:46:43.670Z,19.27
2019-03-25T02:49:22.772Z,25.47
2019-03-25T02:52:01.826Z,21.40
2019-03-25T02:54:40.891Z,17.90
2019-03-25T02:57:19.983Z,23.63
2019-03-25T02:59:58.997Z,20.63
2019-03-25T03:02:38.048Z,21.37
2019-03-25T03:05:17.132Z,26.07
2019-03-25T03:07:56.215Z,26.63
2019-03-25T03:10:35.254Z,26.47
2019-03-25T03:13:14.328Z,23.00
2019-03-25T03:18:39.057Z,21.67
2019-03-25T03:21:18.093Z,18.67
2019-03-25T03:23:57.180Z,17.90
2019-03-25T03:26:36.232Z,17.63
2019-03-25T03:29:15.313Z,22.23
2019-03-25T03:31:54.359Z,22.63
2019-03-25T03:34:33.421Z,22.33
2019-03-25T03:37:12.470Z,20.20
2019-03-25T03:39:51.536Z,25.13
2019-03-25T03:42:30.621Z,18.10
2019-03-25T03:45:09.735Z,20.17
2019-03-25T03:47:48.803Z,23.40
2019-03-25T03:50:31.992Z,22.57
2019-03-25T03:53:11.084Z,14.70
2019-03-25T03:55:50.122Z,22.43
2019-03-25T03:58:29.564Z,19.03
2019-03-25T04:01:08.631Z,16.47
2019-03-25T04:03:47.728Z,16.40
2019-03-25T04:06:26.771Z,22.50
2019-03-25T04:09:06.407Z,25.90
2019-03-25T04:11:45.448Z,21.00
2019-03-25T04:14:24.514Z,20.73
2019-03-25T04:17:03.560Z,27.40
2019-03-25T04:19:42.666Z,19.37
2019-03-25T04:22:21.714Z,21.77
2019-03-25T04:25:00.809Z,20.40
2019-03-25T04:27:39.836Z,14.07
2019-03-25T04:30:19.099Z,21.50
2019-03-25T04:32:58.163Z,15.87
2019-03-25T04:35:37.239Z,19.63
2019-03-25T04:38:16.303Z,16.00
2019-03-25T04:40:55.357Z,21.83
2019-03-25T04:43:34.437Z,24.17
2019-03-25T04:46:13.481Z,27.13
2019-03-25T04:48:52.545Z,21.83
2019-03-25T04:51:31.591Z,25.37
2019-03-25T04:54:10.671Z,17.73
2019-03-25T04:56:49.735Z,38.10
2019-03-25T04:59:28.822Z,31.87
2019-03-25T05:02:07.877Z,25.27
2019-03-25T05:04:46.967Z,23.00
2019-03-25T05:07:26.041Z,22.10
2019-03-25T05:10:05.124Z,21.47
2019-03-25T05:12:44.185Z,18.43
2019-03-25T05:15:23.285Z,14.87
2019-03-25T05:18:02.346Z,16.70
2019-03-25T05:20:41.425Z,19.87
2019-03-25T05:23:20.461Z,21.33
2019-03-25T05:25:59.524Z,25.37
2019-03-25T05:28:38.661Z,13.40
2019-03-25T05:31:17.748Z,19.23
2019-03-25T05:33:56.771Z,22.70
2019-03-25T05:36:35.844Z,22.60
2019-03-25T05:39:15.228Z,24.47
2019-03-25T05:41:54.259Z,21.83
2019-03-25T05:44:33.353Z,24.43
2019-03-25T05:47:12.426Z,19.67
2019-03-25T05:49:51.478Z,21.47
2019-03-25T05:52:30.513Z,18.57
2019-03-25T05:55:09.973Z,23.40
2019-03-25T05:57:49.179Z,14.10
2019-03-25T06:00:31.152Z,16.13
2019-03-25T06:03:10.211Z,14.17
2019-03-25T06:05:49.289Z,19.00
2019-03-25T06:08:28.399Z,16.00
2019-03-25T06:11:07.479Z,15.60
2019-03-25T06:13:46.528Z,17.90
2019-03-25T06:16:25.597Z,17.90
2019-03-25T06:21:48.627Z,17.80
2019-03-25T06:24:27.715Z,20.53
2019-03-25T06:27:14.158Z,19.83
2019-03-25T06:29:45.832Z,23.27
2019-03-25T06:32:24.897Z,16.20
2019-03-25T06:35:03.998Z,14.93
2019-03-25T06:37:43.060Z,20.60
2019-03-25T06:40:22.147Z,15.97
2019-03-25T06:43:01.218Z,14.63
2019-03-25T06:45:40.301Z,20.50
2019-03-25T06:48:19.390Z,14.40
2019-03-25T06:50:58.513Z,29.10
2019-03-25T06:53:37.569Z,18.27
2019-03-25T06:56:16.637Z,21.13
2019-03-25T06:58:55.679Z,18.40
2019-03-25T07:01:34.735Z,22.30
2019-03-25T07:04:13.801Z,17.40
2019-03-25T07:06:52.926Z,21.17
2019-03-25T07:09:31.997Z,19.30
2019-03-25T07:12:11.064Z,22.23
2019-03-25T07:14:50.140Z,16.23
2019-03-25T07:17:29.201Z,19.40
2019-03-25T07:20:08.699Z,21.27
2019-03-25T07:22:47.744Z,18.40
2019-03-25T07:25:26.819Z,20.17
2019-03-25T07:28:05.841Z,23.13
2019-03-25T07:30:44.903Z,17.53
2019-03-25T07:33:23.976Z,16.53
2019-03-25T07:36:03.043Z,17.53
2019-03-25T07:38:42.099Z,24.67
2019-03-25T07:41:21.170Z,19.13
2019-03-25T07:44:00.202Z,14.57
2019-03-25T07:46:39.350Z,17.30
2019-03-25T07:49:18.376Z,16.13
2019-03-25T07:51:57.433Z,16.10
2019-03-25T07:54:36.512Z,18.13
2019-03-25T07:57:15.574Z,13.80
2019-03-25T07:59:54.653Z,18.10
2019-03-25T08:02:33.716Z,15.17
2019-03-25T08:05:12.910Z,20.73
2019-03-25T08:07:52.001Z,15.90
2019-03-25T08:10:41.034Z,16.37
2019-03-25T08:13:20.176Z,14.10
2019-03-25T08:15:59.183Z,12.60
2019-03-25T08:21:26.949Z,16.10
2019-03-25T08:24:06.040Z,15.47
2019-03-25T08:26:45.168Z,12.43
2019-03-25T08:29:24.246Z,11.73
2019-03-25T08:32:03.330Z,13.93
2019-03-25T08:34:42.385Z,10.20
2019-03-25T08:37:21.531Z,10.03
2019-03-25T08:40:00.657Z,10.00
2019-03-25T08:42:39.722Z,9.67
2019-03-25T08:45:18.846Z,11.43
2019-03-25T08:47:57.926Z,11.60
2019-03-25T08:50:37.009Z,16.40
2019-03-25T08:53:16.060Z,17.23
2019-03-25T08:55:55.134Z,13.07
2019-03-25T08:58:34.204Z,12.67
2019-03-25T09:01:13.275Z,11.87
2019-03-25T09:03:52.367Z,11.17
2019-03-25T09:06:31.433Z,9.73
2019-03-25T09:09:11.780Z,9.83
2019-03-25T09:11:51.788Z,9.30
2019-03-25T09:14:29.930Z,9.57
2019-03-25T09:17:09.042Z,17.93
2019-03-25T09:19:48.095Z,9.33
2019-03-25T09:22:27.195Z,6.53
2019-03-25T09:25:06.266Z,11.37
2019-03-25T09:27:45.357Z,6.83
2019-03-25T09:31:21.370Z,5.77
2019-03-25T09:34:00.418Z,5.40
2019-03-25T09:36:39.502Z,7.97
2019-03-25T09:39:18.556Z,8.77
2019-03-25T09:41:57.646Z,3.90
2019-03-25T09:44:36.687Z,5.63
2019-03-25T09:47:15.784Z,6.53
2019-03-25T09:49:54.869Z,4.17
2019-03-25T09:52:38.480Z,5.77
2019-03-25T09:55:13.046Z,9.93
2019-03-25T09:57:52.129Z,5.83
2019-03-25T10:00:35.880Z,4.73
2019-03-25T10:03:14.960Z,4.33
2019-03-25T10:05:54.085Z,8.17
2019-03-25T10:08:33.157Z,5.30
2019-03-25T10:11:12.269Z,7.13
2019-03-25T10:13:51.381Z,4.60
2019-03-25T10:16:30.528Z,3.60
2019-03-25T10:19:10.366Z,5.07
2019-03-25T10:21:48.664Z,5.63
2019-03-25T10:24:28.222Z,9.03
2019-03-25T10:27:06.858Z,2.50
2019-03-25T10:29:45.944Z,7.90
2019-03-25T10:32:25.037Z,4.13
2019-03-25T10:35:04.086Z,5.17
2019-03-25T10:37:43.157Z,6.63
2019-03-25T10:40:22.233Z,13.43
2019-03-25T10:43:01.335Z,7.83
2019-03-25T10:45:40.392Z,6.83
2019-03-25T10:48:19.487Z,7.03
2019-03-25T10:50:58.527Z,7.20
2019-03-25T10:53:37.608Z,9.67
2019-03-25T10:56:16.744Z,10.23
2019-03-25T10:58:58.298Z,7.40
2019-03-25T11:01:34.853Z,9.07
2019-03-25T11:04:13.913Z,7.70
2019-03-25T11:06:53.118Z,7.97
2019-03-25T11:09:32.182Z,7.37
2019-03-25T11:12:11.260Z,7.67
2019-03-25T11:14:50.314Z,5.87
2019-03-25T11:17:29.398Z,4.80
2019-03-25T11:20:08.917Z,5.87
2019-03-25T11:22:47.988Z,8.57
2019-03-25T11:25:27.070Z,6.83
2019-03-25T11:28:06.140Z,10.50
2019-03-25T11:33:40.460Z,8.50
2019-03-25T11:36:19.542Z,5.43
2019-03-25T11:38:58.584Z,6.67
2019-03-25T11:41:37.680Z,7.53
2019-03-25T11:44:16.744Z,6.40
2019-03-25T11:46:55.813Z,6.00
2019-03-25T11:49:34.876Z,9.67
2019-03-25T11:52:13.953Z,5.17
2019-03-25T11:54:52.998Z,8.07
2019-03-25T11:57:32.079Z,5.63
2019-03-25T12:00:11.440Z,6.87
2019-03-25T12:02:50.528Z,9.10
2019-03-25T12:05:29.578Z,5.87
2019-03-25T12:08:08.648Z,4.60
2019-03-25T12:10:47.693Z,5.33
2019-03-25T12:13:26.777Z,8.50
2019-03-25T12:16:05.875Z,4.70
2019-03-25T12:21:29.943Z,4.63
2019-03-25T12:24:09.038Z,3.97
2019-03-25T12:26:48.113Z,3.23
2019-03-25T12:29:30.366Z,5.90
2019-03-25T12:32:06.293Z,9.97
2019-03-25T12:34:45.354Z,4.43
2019-03-25T12:37:24.444Z,8.70
2019-03-25T12:40:03.512Z,7.90
2019-03-25T12:42:42.584Z,11.60
2019-03-25T12:45:21.645Z,4.67
2019-03-25T12:48:00.723Z,12.63
2019-03-25T12:50:39.777Z,11.63
2019-03-25T12:53:18.846Z,7.90
2019-03-25T12:55:57.892Z,11.50
2019-03-25T12:58:36.980Z,55.53
2019-03-25T13:01:16.034Z,13.00
2019-03-25T13:03:55.136Z,8.27
2019-03-25T13:06:34.223Z,24.10
2019-03-25T13:09:13.488Z,5.60
2019-03-25T13:11:52.523Z,4.17
2019-03-25T13:14:31.609Z,5.60
2019-03-25T13:17:10.680Z,16.10
2019-03-25T13:19:49.765Z,8.07
2019-03-25T13:22:28.843Z,2.00
2019-03-25T13:25:07.926Z,3.03
2019-03-25T13:27:46.994Z,8.20
2019-03-25T13:30:26.064Z,17.90
2019-03-25T13:33:05.137Z,3.83
2019-03-25T13:35:44.182Z,8.33
2019-03-25T13:38:23.271Z,7.03
2019-03-25T13:41:02.330Z,23.97
2019-03-25T13:43:43.719Z,4.63
2019-03-25T13:46:20.491Z,4.60
2019-03-25T13:48:59.565Z,3.20
2019-03-25T13:54:26.631Z,2.07
2019-03-25T13:57:05.733Z,5.27
2019-03-25T13:59:44.829Z,13.67
2019-03-25T14:02:24.441Z,2.77
2019-03-25T14:05:03.005Z,3.40
2019-03-25T14:07:42.077Z,4.70
2019-03-25T14:10:21.131Z,3.87
2019-03-25T14:13:00.199Z,5.20
2019-03-25T14:15:39.258Z,3.57
2019-03-25T14:18:18.354Z,1.80
2019-03-25T14:20:57.472Z,2.77
2019-03-25T14:23:36.579Z,3.90
2019-03-25T14:26:15.629Z,2.67
2019-03-25T14:28:54.744Z,4.50
2019-03-25T14:31:33.799Z,4.13
2019-03-25T14:34:14.582Z,2.43
2019-03-25T14:36:51.977Z,3.00
2019-03-25T14:39:31.092Z,3.30
2019-03-25T14:42:10.169Z,3.60
2019-03-25T14:44:49.265Z,3.13
2019-03-25T14:47:28.327Z,3.30
2019-03-25T14:50:07.961Z,4.97
2019-03-25T14:52:47.020Z,3.00
2019-03-25T14:55:26.091Z,3.63
2019-03-25T14:58:05.195Z,2.77
2019-03-25T15:00:44.240Z,3.27
2019-03-25T15:03:23.332Z,2.50
2019-03-25T15:06:02.401Z,2.00
2019-03-25T15:08:41.632Z,3.20
2019-03-25T15:11:20.671Z,2.67
2019-03-25T15:13:59.733Z,2.07
2019-03-25T15:16:39.048Z,1.83
2019-03-25T15:19:18.146Z,2.40
2019-03-25T15:21:57.225Z,1.67
2019-03-25T15:24:36.380Z,2.03
2019-03-25T15:27:15.440Z,1.93
2019-03-25T15:29:54.518Z,2.07
2019-03-25T15:32:33.591Z,1.97
2019-03-25T15:35:12.736Z,2.90
2019-03-25T15:37:51.799Z,3.00
2019-03-25T15:40:33.420Z,4.00
2019-03-25T15:43:12.467Z,4.60
2019-03-25T15:45:52.233Z,4.13
2019-03-25T15:48:30.775Z,3.13
2019-03-25T15:53:56.261Z,4.50
2019-03-25T15:56:35.297Z,5.17
2019-03-25T15:59:14.376Z,3.30
2019-03-25T16:01:53.446Z,2.00
2019-03-25T16:04:32.560Z,1.57
2019-03-25T16:07:11.649Z,1.40
2019-03-25T16:09:50.757Z,1.40
2019-03-25T16:12:29.822Z,1.93
2019-03-25T16:15:08.948Z,4.20
2019-03-25T16:17:47.991Z,2.13
2019-03-25T16:20:27.082Z,1.73
2019-03-25T16:23:06.203Z,3.27
2019-03-25T16:25:45.375Z,2.17
2019-03-25T16:28:24.557Z,2.20
2019-03-25T16:31:03.877Z,1.90
2019-03-25T16:33:43.066Z,3.67
2019-03-25T16:36:22.143Z,4.70
2019-03-25T16:39:01.237Z,2.70
2019-03-25T16:41:40.452Z,4.30
2019-03-25T16:44:19.702Z,3.93
2019-03-25T16:46:58.806Z,4.33
2019-03-25T16:49:37.928Z,3.20
2019-03-25T16:52:17.174Z,1.70
2019-03-25T16:54:56.297Z,1.90
2019-03-25T16:57:35.429Z,3.40
2019-03-25T17:00:14.523Z,1.83
2019-03-25T17:02:53.779Z,1.50
2019-03-25T17:05:32.966Z,1.60
2019-03-25T17:08:12.090Z,2.67
2019-03-25T17:10:51.183Z,2.10
2019-03-25T17:13:30.262Z,3.67
2019-03-25T17:16:09.381Z,3.83
2019-03-25T17:18:48.488Z,3.23
2019-03-25T17:21:27.622Z,3.03
2019-03-25T17:24:06.810Z,3.97
2019-03-25T17:26:45.913Z,3.60
2019-03-25T17:29:25.115Z,3.67
2019-03-25T17:32:04.332Z,4.50
2019-03-25T17:34:49.567Z,5.10
2019-03-25T17:37:28.848Z,3.00
2019-03-25T17:40:08.298Z,4.93
2019-03-25T17:42:47.602Z,6.43
2019-03-25T17:45:26.847Z,5.27
2019-03-25T17:48:29.110Z,3.57
2019-03-25T17:52:10.512Z,5.37
2019-03-25T17:54:49.723Z,3.73
2019-03-25T17:57:28.865Z,3.63
2019-03-25T18:00:08.873Z,5.97
2019-03-25T18:02:48.002Z,5.43
2019-03-25T18:05:27.407Z,4.83
2019-03-25T18:08:06.486Z,5.77
2019-03-25T18:10:45.567Z,7.63
2019-03-25T18:13:24.645Z,6.17
2019-03-25T18:16:06.336Z,8.17
2019-03-25T18:18:46.233Z,5.63
2019-03-25T18:21:25.544Z,4.83
2019-03-25T18:24:04.616Z,11.70
2019-03-25T18:26:43.860Z,5.33
2019-03-25T18:29:22.932Z,5.20
2019-03-25T18:32:02.123Z,4.90
2019-03-25T18:37:29.914Z,4.00
2019-03-25T18:40:09.085Z,5.43
2019-03-25T18:42:48.189Z,3.13
2019-03-25T18:45:27.610Z,2.93
2019-03-25T18:48:06.705Z,6.50
2019-03-25T18:50:45.908Z,3.97
2019-03-25T18:53:25.635Z,5.10
2019-03-25T18:56:09.163Z,4.13
2019-03-25T18:59:12.381Z,7.33
2019-03-25T19:01:54.933Z,4.23
2019-03-25T19:04:33.797Z,4.50
2019-03-25T19:07:18.239Z,3.83
2019-03-25T19:10:02.756Z,6.60
2019-03-25T19:12:42.154Z,5.47
2019-03-25T19:15:21.653Z,5.30
2019-03-25T19:18:00.904Z,4.37
2019-03-25T19:20:40.424Z,7.50
2019-03-25T19:23:19.728Z,5.40
2019-03-25T19:25:59.043Z,4.50
2019-03-25T19:28:38.234Z,5.70
2019-03-25T19:31:17.447Z,5.23
2019-03-25T19:33:56.729Z,7.27
2019-03-25T19:36:35.981Z,8.40
2019-03-25T19:39:15.243Z,8.03
2019-03-25T19:41:57.971Z,5.67
2019-03-25T19:44:37.273Z,6.67
2019-03-25T19:47:17.595Z,6.03
2019-03-25T19:49:56.812Z,7.90
2019-03-25T19:52:36.152Z,8.87
2019-03-25T19:55:15.292Z,6.33
2019-03-25T19:57:54.509Z,6.13
2019-03-25T20:00:41.832Z,4.57
2019-03-25T20:03:21.076Z,6.43
2019-03-25T20:06:00.177Z,7.17
2019-03-25T20:08:39.301Z,9.87
2019-03-25T20:11:19.808Z,8.83
2019-03-25T20:14:26.915Z,9.70
2019-03-25T20:17:06.132Z,7.73
2019-03-25T20:19:47.074Z,8.27
2019-03-25T20:22:26.372Z,7.80
2019-03-25T20:25:06.363Z,4.93
2019-03-25T20:27:45.528Z,7.00
2019-03-25T20:30:24.696Z,7.03
2019-03-25T20:33:09.961Z,6.67
2019-03-25T20:35:49.322Z,7.03
2019-03-25T20:38:28.458Z,6.33
2019-03-25T20:41:07.467Z,7.13
2019-03-25T20:43:46.564Z,7.73
2019-03-25T20:46:25.613Z,8.57
2019-03-25T20:49:04.668Z,6.47
2019-03-25T20:51:43.787Z,5.43
2019-03-25T20:54:22.872Z,6.40
2019-03-25T20:57:02.049Z,10.87
2019-03-25T20:59:41.141Z,4.37
2019-03-25T21:02:20.210Z,6.70
2019-03-25T21:04:59.231Z,6.20
2019-03-25T21:07:38.305Z,5.67
2019-03-25T21:10:17.694Z,6.07
2019-03-25T21:12:56.938Z,6.63
2019-03-25T21:15:36.027Z,4.87
2019-03-25T21:18:15.066Z,9.60
2019-03-25T21:20:54.463Z,9.40
2019-03-25T21:23:33.616Z,8.00
2019-03-25T21:26:12.622Z,6.67
2019-03-25T21:28:51.710Z,8.10
2019-03-25T21:31:30.759Z,10.40
2019-03-25T21:34:09.837Z,9.60
2019-03-25T21:36:48.966Z,8.00
2019-03-25T21:39:28.014Z,12.60
2019-03-25T21:42:07.084Z,7.30
2019-03-25T21:44:46.169Z,9.27
2019-03-25T21:47:25.233Z,11.00
2019-03-25T21:50:04.292Z,11.47
2019-03-25T21:52:43.464Z,9.60
2019-03-25T21:55:22.446Z,13.73
2019-03-25T21:58:01.634Z,9.37
2019-03-25T22:00:40.665Z,11.20
2019-03-25T22:03:19.710Z,10.53
2019-03-25T22:05:58.757Z,11.13
2019-03-25T22:08:37.845Z,9.43
2019-03-25T22:11:16.910Z,10.63
2019-03-25T22:13:55.973Z,11.97
2019-03-25T22:16:35.012Z,12.20
2019-03-25T22:19:14.093Z,9.43
2019-03-25T22:21:53.150Z,10.67
2019-03-25T22:24:32.223Z,12.10
2019-03-25T22:27:11.274Z,10.43
2019-03-25T22:29:50.354Z,15.27
2019-03-25T22:32:29.406Z,11.47
2019-03-25T22:35:08.681Z,10.93
2019-03-25T22:37:47.748Z,12.97
2019-03-25T22:40:28.144Z,11.13
2019-03-25T22:43:07.113Z,11.63
2019-03-25T22:45:46.178Z,12.30
2019-03-25T22:48:25.231Z,11.87
2019-03-25T22:51:04.286Z,11.13
2019-03-25T22:53:43.365Z,15.03
2019-03-25T22:56:22.427Z,15.77
2019-03-25T22:59:01.512Z,10.07
2019-03-25T23:01:40.537Z,15.50
2019-03-25T23:04:19.594Z,14.23
2019-03-25T23:06:58.682Z,10.57
2019-03-25T23:09:38.000Z,14.43
2019-03-25T23:12:17.046Z,12.13
2019-03-25T23:14:56.132Z,18.47
2019-03-25T23:17:35.190Z,15.93
2019-03-25T23:20:14.279Z,12.00
2019-03-25T23:22:53.368Z,11.97
2019-03-25T23:25:32.446Z,11.90
2019-03-25T23:28:11.492Z,13.90
2019-03-25T23:30:50.577Z,12.33
2019-03-25T23:33:29.709Z,11.53
2019-03-25T23:36:08.783Z,15.90
2019-03-25T23:38:47.886Z,14.23
2019-03-25T23:41:26.943Z,14.03
2019-03-25T23:44:06.027Z,11.27
2019-03-25T23:46:45.066Z,11.63
2019-03-25T23:49:24.154Z,14.13
2019-03-25T23:52:03.217Z,11.50
2019-03-25T23:54:42.288Z,10.20
2019-03-25T23:57:21.344Z,9.27
